臺北終端管制區 - 桃園北區雷達席

METAR RCTP 190000Z 21007KT 6000 FEW012 BKN100 17/15 Q1022 NOSIG RMK A3018(Q)=

站台狀態:Offline
最後更新:2019-01-19 08:00:02